Time;durP1;ratioP1;P1;durP2;ratioP2;P2;SDS_P1;SDS_P2;PMS_P1;PMS_P2;Temp;Humidity;BMP_temperature;BMP_pressure;BME280_temperature;BME280_humidity;BME280_pressure;Samples;Min_cycle;Max_cycle;Signal;HPM_P1;HPM_P2
2021/11/21 00:00:10;;;;;;;71.25;11.55;;;;;;;;;;5132095;27;20203;-66
2021/11/21 00:02:38;;;;;;;75.63;12.88;;;;;;;;;;5132032;27;20229;-66
2021/11/21 00:05:05;;;;;;;72.85;12.32;;;;;;;;;;5131755;27;20201;-65
2021/11/21 00:07:33;;;;;;;72.82;12.35;;;;;;;;;;5131922;27;20588;-65
2021/11/21 00:10:00;;;;;;;73.88;12.52;;;;;;;;;;5130270;27;20203;-64
2021/11/21 00:12:27;;;;;;;74.05;12.57;;;;;;;;;;5131791;27;20309;-65
2021/11/21 00:14:54;;;;;;;69.10;11.55;;;;;;;;;;5131484;27;20229;-66
2021/11/21 00:17:23;;;;;;;70.95;11.52;;;;;;;;;;5131134;27;20206;-65
2021/11/21 00:19:50;;;;;;;77.35;12.55;;;;;;;;;;5132232;27;20213;-66
2021/11/21 00:22:17;;;;;;;73.40;13.25;;;;;;;;;;5131764;27;20594;-66
2021/11/21 00:24:45;;;;;;;74.05;13.82;;;;;;;;;;5131623;27;20206;-66
2021/11/21 00:27:12;;;;;;;72.80;12.73;;;;;;;;;;5131523;27;20667;-66
2021/11/21 00:29:39;;;;;;;74.25;12.05;;;;;;;;;;5131991;27;20207;-64
2021/11/21 00:32:07;;;;;;;74.00;12.18;;;;;;;;;;5131453;27;20715;-66
2021/11/21 00:34:35;;;;;;;72.50;12.88;;;;;;;;;;5131422;27;20203;-66
2021/11/21 00:37:02;;;;;;;74.80;13.50;;;;;;;;;;5131143;27;20203;-66
2021/11/21 00:39:30;;;;;;;76.15;11.65;;;;;;;;;;5131954;27;20203;-66
2021/11/21 00:41:57;;;;;;;72.15;12.25;;;;;;;;;;5130777;27;20230;-64
2021/11/21 00:44:24;;;;;;;71.53;11.63;;;;;;;;;;5131382;27;20298;-66
2021/11/21 00:46:51;;;;;;;74.40;13.15;;;;;;;;;;5131264;27;20203;-66
2021/11/21 00:49:19;;;;;;;73.38;11.70;;;;;;;;;;5131666;27;20198;-66
2021/11/21 00:51:49;;;;;;;73.30;13.35;;;;;;;;;;5131258;27;20644;-66
2021/11/21 00:54:26;;;;;;;71.60;11.52;;;;;;;;;;5131514;27;20205;-65
2021/11/21 00:56:54;;;;;;;72.90;12.52;;;;;;;;;;5134379;27;20320;-66
2021/11/21 00:59:21;;;;;;;71.13;12.43;;;;;;;;;;5135048;27;20199;-66
2021/11/21 01:01:49;;;;;;;73.70;11.60;;;;;;;;;;5135090;27;20229;-66
2021/11/21 01:04:16;;;;;;;69.22;11.85;;;;;;;;;;5135071;27;20228;-66
2021/11/21 01:06:44;;;;;;;71.95;11.77;;;;;;;;;;5134766;27;20222;-66
2021/11/21 01:09:13;;;;;;;71.47;12.40;;;;;;;;;;5135177;27;20209;-65
2021/11/21 01:11:40;;;;;;;75.78;14.18;;;;;;;;;;5134793;27;20227;-66
2021/11/21 01:14:07;;;;;;;73.55;12.32;;;;;;;;;;5135214;27;20578;-66
2021/11/21 01:16:35;;;;;;;70.95;11.60;;;;;;;;;;5132303;27;20237;-65
2021/11/21 01:19:02;;;;;;;71.72;11.88;;;;;;;;;;5134757;27;20214;-66
2021/11/21 01:21:29;;;;;;;77.20;14.80;;;;;;;;;;5134989;27;20603;-66
2021/11/21 01:23:57;;;;;;;74.22;12.40;;;;;;;;;;5134668;27;20706;-66
2021/11/21 01:26:25;;;;;;;74.18;14.15;;;;;;;;;;5134422;27;20203;-66
2021/11/21 01:28:53;;;;;;;76.30;14.38;;;;;;;;;;5134677;27;20627;-66
2021/11/21 01:31:20;;;;;;;77.43;15.68;;;;;;;;;;5134319;27;20721;-66
2021/11/21 01:33:47;;;;;;;74.78;13.50;;;;;;;;;;5134578;27;20211;-65
2021/11/21 01:36:14;;;;;;;82.20;17.25;;;;;;;;;;5133769;27;20222;-66
2021/11/21 01:38:43;;;;;;;75.50;13.70;;;;;;;;;;5134207;27;20205;-66
2021/11/21 01:41:10;;;;;;;76.95;13.20;;;;;;;;;;5134499;27;20227;-66
2021/11/21 01:43:38;;;;;;;72.82;12.15;;;;;;;;;;5134330;27;20203;-66
2021/11/21 01:46:05;;;;;;;71.90;11.95;;;;;;;;;;5134160;27;20199;-65
2021/11/21 01:48:33;;;;;;;73.40;11.55;;;;;;;;;;5132756;27;20199;-66
2021/11/21 01:51:01;;;;;;;73.78;12.98;;;;;;;;;;5134382;27;20227;-66
2021/11/21 01:53:29;;;;;;;71.20;11.20;;;;;;;;;;5133878;27;20689;-66
2021/11/21 01:55:56;;;;;;;74.57;12.75;;;;;;;;;;5133426;27;20219;-65
2021/11/21 01:58:23;;;;;;;74.18;11.80;;;;;;;;;;5133922;27;20210;-66
2021/11/21 02:00:52;;;;;;;73.43;12.45;;;;;;;;;;5133841;27;20682;-65
2021/11/21 02:03:19;;;;;;;73.50;12.18;;;;;;;;;;5131508;27;20203;-66
2021/11/21 02:05:47;;;;;;;73.90;12.90;;;;;;;;;;5133255;27;20218;-66
2021/11/21 02:08:14;;;;;;;69.70;11.27;;;;;;;;;;5133299;27;20213;-65
2021/11/21 02:10:41;;;;;;;71.35;11.75;;;;;;;;;;5134051;27;20203;-66
2021/11/21 02:13:09;;;;;;;72.22;12.43;;;;;;;;;;5133837;27;20198;-66
2021/11/21 02:15:37;;;;;;;70.90;11.32;;;;;;;;;;5133575;27;20724;-66
2021/11/21 02:18:06;;;;;;;72.78;11.90;;;;;;;;;;5131014;27;20207;-67
2021/11/21 02:20:51;;;;;;;73.00;12.15;;;;;;;;;;5133301;27;20203;-66
2021/11/21 02:23:18;;;;;;;71.57;11.80;;;;;;;;;;5134086;27;20205;-65
2021/11/21 02:25:45;;;;;;;73.05;13.20;;;;;;;;;;5133208;27;20203;-66
2021/11/21 02:28:12;;;;;;;71.10;11.38;;;;;;;;;;5133657;27;20206;-66
2021/11/21 02:30:40;;;;;;;73.00;11.95;;;;;;;;;;5133337;27;20203;-66
2021/11/21 02:33:09;;;;;;;76.72;11.18;;;;;;;;;;5133448;27;20206;-65
2021/11/21 02:35:39;;;;;;;71.90;11.70;;;;;;;;;;5132774;27;20245;-66
2021/11/21 02:38:07;;;;;;;71.55;12.32;;;;;;;;;;5132639;27;20210;-66
2021/11/21 02:40:34;;;;;;;72.65;12.93;;;;;;;;;;5132919;27;20675;-66
2021/11/21 02:43:02;;;;;;;75.80;12.73;;;;;;;;;;5133163;27;20203;-66
2021/11/21 02:45:29;;;;;;;73.47;11.18;;;;;;;;;;5132538;27;20199;-66
2021/11/21 02:47:56;;;;;;;69.30;10.60;;;;;;;;;;5133307;27;20224;-66
2021/11/21 02:50:24;;;;;;;72.65;11.10;;;;;;;;;;5131652;27;20207;-65
2021/11/21 02:52:52;;;;;;;71.88;12.30;;;;;;;;;;5132977;27;20231;-65
2021/11/21 02:55:26;;;;;;;71.72;11.48;;;;;;;;;;5132700;27;20607;-66
2021/11/21 02:57:53;;;;;;;70.90;11.50;;;;;;;;;;5132559;27;20382;-66
2021/11/21 03:00:20;;;;;;;73.18;12.93;;;;;;;;;;5130154;27;20203;-66
2021/11/21 03:02:48;;;;;;;71.45;11.60;;;;;;;;;;5132786;27;20748;-66
2021/11/21 03:05:17;;;;;;;71.35;10.73;;;;;;;;;;5132573;27;20217;-66
2021/11/21 03:07:45;;;;;;;70.10;11.32;;;;;;;;;;5132514;27;20203;-65
2021/11/21 03:10:14;;;;;;;71.03;11.48;;;;;;;;;;5132767;27;20213;-66
2021/11/21 03:12:43;;;;;;;71.82;11.60;;;;;;;;;;5132974;27;20223;-66
2021/11/21 03:15:10;;;;;;;75.40;12.57;;;;;;;;;;5132207;27;20203;-66
2021/11/21 03:17:39;;;;;;;74.05;12.02;;;;;;;;;;5131896;27;20726;-66
2021/11/21 03:20:06;;;;;;;71.78;12.23;;;;;;;;;;5132193;27;20679;-65
2021/11/21 03:22:34;;;;;;;70.10;11.27;;;;;;;;;;5131360;27;20229;-66
2021/11/21 03:25:01;;;;;;;73.70;12.50;;;;;;;;;;5132644;27;20203;-65
2021/11/21 03:27:28;;;;;;;72.45;11.82;;;;;;;;;;5132615;27;20199;-66
2021/11/21 03:29:56;;;;;;;71.53;11.82;;;;;;;;;;5132903;27;20210;-65
2021/11/21 03:32:24;;;;;;;75.28;11.60;;;;;;;;;;5132746;27;20231;-66
2021/11/21 03:34:51;;;;;;;73.65;12.60;;;;;;;;;;5132728;27;20203;-65
2021/11/21 03:37:18;;;;;;;71.90;10.88;;;;;;;;;;5132315;27;20261;-66
2021/11/21 03:39:45;;;;;;;72.20;12.07;;;;;;;;;;5133150;27;20203;-66
2021/11/21 03:42:12;;;;;;;73.07;12.25;;;;;;;;;;5132472;27;20233;-66
2021/11/21 03:44:39;;;;;;;74.65;13.15;;;;;;;;;;5132774;27;20203;-66
2021/11/21 03:47:08;;;;;;;71.55;11.60;;;;;;;;;;5132390;27;20195;-66
2021/11/21 03:49:35;;;;;;;75.35;12.95;;;;;;;;;;5132509;27;20213;-65
2021/11/21 03:52:02;;;;;;;72.97;12.82;;;;;;;;;;5132366;27;20237;-66
2021/11/21 03:54:29;;;;;;;77.68;13.18;;;;;;;;;;5132703;27;20200;-66
2021/11/21 03:56:56;;;;;;;75.40;13.15;;;;;;;;;;5132124;27;20729;-66
2021/11/21 03:59:24;;;;;;;76.30;14.10;;;;;;;;;;5132621;27;20246;-66
2021/11/21 04:01:51;;;;;;;77.25;14.43;;;;;;;;;;5132424;27;20229;-66
2021/11/21 04:04:21;;;;;;;78.68;13.48;;;;;;;;;;5132324;27;20214;-66
2021/11/21 04:06:48;;;;;;;77.03;13.52;;;;;;;;;;5132063;27;20686;-65
2021/11/21 04:09:15;;;;;;;78.40;13.10;;;;;;;;;;5132388;27;20203;-66
2021/11/21 04:11:42;;;;;;;76.05;13.35;;;;;;;;;;5132277;27;20722;-66
2021/11/21 04:14:09;;;;;;;76.75;12.52;;;;;;;;;;5132496;27;20228;-66
2021/11/21 04:16:36;;;;;;;76.93;13.90;;;;;;;;;;5131937;27;20222;-66
2021/11/21 04:19:06;;;;;;;75.22;13.88;;;;;;;;;;5132055;27;20229;-65
2021/11/21 04:21:34;;;;;;;77.10;13.75;;;;;;;;;;5132153;27;20283;-66
2021/11/21 04:24:01;;;;;;;74.88;13.57;;;;;;;;;;5132518;27;20577;-66
2021/11/21 04:26:29;;;;;;;79.47;13.43;;;;;;;;;;5131907;27;20224;-66
2021/11/21 04:28:56;;;;;;;75.45;14.13;;;;;;;;;;5132200;27;20704;-65
2021/11/21 04:31:23;;;;;;;78.55;14.75;;;;;;;;;;5135546;27;20237;-66
2021/11/21 04:33:50;;;;;;;79.18;13.30;;;;;;;;;;5136036;27;20221;-66
2021/11/21 04:36:18;;;;;;;78.70;15.13;;;;;;;;;;5135692;27;20226;-66
2021/11/21 04:38:46;;;;;;;79.95;14.30;;;;;;;;;;5136140;27;20202;-66
2021/11/21 04:41:13;;;;;;;77.53;14.10;;;;;;;;;;5136089;27;20223;-66
2021/11/21 04:43:40;;;;;;;78.13;14.75;;;;;;;;;;5135975;27;20224;-65
2021/11/21 04:46:07;;;;;;;79.63;13.75;;;;;;;;;;5135482;27;20573;-66
2021/11/21 04:48:34;;;;;;;80.40;15.05;;;;;;;;;;5136035;27;20199;-65
2021/11/21 04:51:01;;;;;;;78.30;14.77;;;;;;;;;;5135937;27;20223;-66
2021/11/21 04:53:29;;;;;;;78.90;14.15;;;;;;;;;;5135860;27;20310;-65
2021/11/21 04:55:57;;;;;;;70.72;11.20;;;;;;;;;;5135267;27;20667;-66
2021/11/21 04:58:24;;;;;;;73.15;12.25;;;;;;;;;;5135641;27;20714;-66
2021/11/21 05:00:51;;;;;;;75.55;13.57;;;;;;;;;;5135526;27;20229;-66
2021/11/21 05:03:18;;;;;;;74.30;11.90;;;;;;;;;;5135788;27;20203;-66
2021/11/21 05:05:46;;;;;;;72.60;12.02;;;;;;;;;;5134946;27;20693;-65
2021/11/21 05:08:13;;;;;;;76.00;13.07;;;;;;;;;;5135577;27;20210;-66
2021/11/21 05:10:40;;;;;;;72.65;11.93;;;;;;;;;;5135281;27;20202;-66
2021/11/21 05:13:08;;;;;;;75.80;12.50;;;;;;;;;;5135355;27;20378;-66
2021/11/21 05:15:35;;;;;;;77.55;12.45;;;;;;;;;;5134936;27;20685;-65
2021/11/21 05:18:03;;;;;;;72.85;11.18;;;;;;;;;;5135526;27;20229;-66
2021/11/21 05:20:30;;;;;;;74.68;12.43;;;;;;;;;;5135293;27;20213;-65
2021/11/21 05:22:57;;;;;;;71.97;11.43;;;;;;;;;;5135246;27;20218;-66
2021/11/21 05:25:24;;;;;;;70.85;12.02;;;;;;;;;;5134939;27;20225;-66
2021/11/21 05:27:51;;;;;;;72.50;11.77;;;;;;;;;;5134918;27;20689;-66
2021/11/21 05:30:21;;;;;;;73.35;11.63;;;;;;;;;;5134946;27;20207;-66
2021/11/21 05:32:48;;;;;;;74.45;11.98;;;;;;;;;;5135070;27;20294;-65
2021/11/21 05:35:16;;;;;;;72.13;14.25;;;;;;;;;;5134994;27;20207;-66
2021/11/21 05:37:43;;;;;;;69.72;11.35;;;;;;;;;;5134632;27;20313;-66
2021/11/21 05:40:12;;;;;;;73.60;12.15;;;;;;;;;;5135346;27;20547;-66
2021/11/21 05:42:39;;;;;;;72.68;11.77;;;;;;;;;;5133792;27;20227;-66
2021/11/21 05:45:07;;;;;;;73.85;12.45;;;;;;;;;;5134871;27;20207;-65
2021/11/21 05:47:35;;;;;;;72.55;12.30;;;;;;;;;;5134631;27;20203;-66
2021/11/21 05:50:02;;;;;;;73.43;11.93;;;;;;;;;;5134702;27;20225;-66
2021/11/21 05:52:31;;;;;;;72.90;12.40;;;;;;;;;;5134519;27;20803;-66
2021/11/21 05:54:58;;;;;;;74.90;13.25;;;;;;;;;;5134439;27;20606;-66
2021/11/21 05:57:25;;;;;;;74.03;12.73;;;;;;;;;;5134335;27;20231;-66
2021/11/21 05:59:52;;;;;;;71.88;12.40;;;;;;;;;;5134597;27;20228;-66
2021/11/21 06:02:19;;;;;;;72.63;11.25;;;;;;;;;;5134336;27;20725;-66
2021/11/21 06:04:48;;;;;;;70.97;11.13;;;;;;;;;;5134648;27;20682;-66
2021/11/21 06:07:15;;;;;;;69.70;9.68;;;;;;;;;;5134154;27;20207;-66
2021/11/21 06:09:42;;;;;;;73.65;12.30;;;;;;;;;;5134528;27;20577;-66
2021/11/21 06:12:09;;;;;;;72.40;11.82;;;;;;;;;;5134065;27;20219;-66
2021/11/21 06:14:37;;;;;;;69.85;10.52;;;;;;;;;;5134448;27;20360;-66
2021/11/21 06:17:04;;;;;;;72.35;11.65;;;;;;;;;;5133690;27;20219;-66
2021/11/21 06:19:31;;;;;;;69.15;10.23;;;;;;;;;;5134124;27;20583;-64
2021/11/21 06:22:00;;;;;;;70.00;11.13;;;;;;;;;;5133949;27;20300;-66
2021/11/21 06:24:29;;;;;;;70.45;11.40;;;;;;;;;;5134205;27;20199;-66
2021/11/21 06:26:56;;;;;;;68.03;10.07;;;;;;;;;;5133944;27;20203;-66
2021/11/21 06:29:23;;;;;;;72.50;12.10;;;;;;;;;;5134059;27;20205;-66
2021/11/21 06:31:50;;;;;;;71.13;10.50;;;;;;;;;;5133815;27;20233;-66
2021/11/21 06:34:18;;;;;;;71.55;10.65;;;;;;;;;;5133696;27;20214;-65
2021/11/21 06:36:45;;;;;;;71.85;11.27;;;;;;;;;;5133274;27;20229;-66
2021/11/21 06:39:14;;;;;;;72.45;12.45;;;;;;;;;;5133607;27;20209;-66
2021/11/21 06:41:41;;;;;;;71.10;12.10;;;;;;;;;;5133604;27;20227;-66
2021/11/21 06:44:09;;;;;;;67.40;10.45;;;;;;;;;;5133608;27;20209;-66
2021/11/21 06:46:36;;;;;;;72.25;13.15;;;;;;;;;;5133233;27;20202;-65
2021/11/21 06:49:04;;;;;;;71.57;11.90;;;;;;;;;;5133335;27;20288;-66
2021/11/21 06:51:31;;;;;;;71.82;11.88;;;;;;;;;;5133541;27;20226;-66
2021/11/21 06:53:58;;;;;;;73.00;12.00;;;;;;;;;;5133038;27;20203;-66
2021/11/21 06:56:29;;;;;;;71.25;10.88;;;;;;;;;;5133132;27;20203;-66
2021/11/21 06:58:56;;;;;;;70.80;10.30;;;;;;;;;;5133354;27;20267;-66
2021/11/21 07:01:23;;;;;;;70.53;11.00;;;;;;;;;;5132999;27;20550;-66
2021/11/21 07:03:50;;;;;;;70.00;11.85;;;;;;;;;;5133336;27;20209;-65
2021/11/21 07:06:35;;;;;;;73.43;12.82;;;;;;;;;;5132925;27;20594;-66
2021/11/21 07:09:03;;;;;;;73.75;12.70;;;;;;;;;;5133188;27;20219;-64
2021/11/21 07:11:31;;;;;;;80.20;14.00;;;;;;;;;;5133072;27;20222;-66
2021/11/21 07:13:59;;;;;;;69.85;10.30;;;;;;;;;;5133431;27;20605;-66
2021/11/21 07:16:26;;;;;;;66.93;10.05;;;;;;;;;;5132712;27;20689;-66
2021/11/21 07:18:53;;;;;;;69.88;11.05;;;;;;;;;;5132951;27;20223;-66
2021/11/21 07:21:20;;;;;;;72.35;11.57;;;;;;;;;;5132983;27;20229;-66
2021/11/21 07:23:47;;;;;;;71.28;10.43;;;;;;;;;;5132940;27;20198;-65
2021/11/21 07:26:14;;;;;;;71.20;11.75;;;;;;;;;;5132608;27;20586;-66
2021/11/21 07:28:43;;;;;;;72.78;11.88;;;;;;;;;;5132738;27;20201;-66
2021/11/21 07:31:10;;;;;;;76.90;13.15;;;;;;;;;;5132699;27;20219;-66
2021/11/21 07:33:38;;;;;;;74.95;12.02;;;;;;;;;;5133040;27;20199;-66
2021/11/21 07:36:05;;;;;;;72.57;12.52;;;;;;;;;;5132484;27;20207;-67
2021/11/21 07:38:34;;;;;;;75.20;12.95;;;;;;;;;;5132594;27;20225;-66
2021/11/21 07:41:01;;;;;;;72.53;11.13;;;;;;;;;;5132566;27;20263;-65
2021/11/21 07:43:30;;;;;;;70.15;10.60;;;;;;;;;;5132669;27;20691;-67
2021/11/21 07:46:00;;;;;;;73.55;12.48;;;;;;;;;;5129558;27;20209;-66
2021/11/21 07:48:27;;;;;;;70.57;10.98;;;;;;;;;;5131775;27;20195;-66
2021/11/21 07:50:54;;;;;;;76.93;11.90;;;;;;;;;;5132523;27;20206;-66
2021/11/21 07:53:21;;;;;;;70.05;11.35;;;;;;;;;;5130573;27;20199;-66
2021/11/21 07:55:48;;;;;;;72.47;10.70;;;;;;;;;;5130747;27;20222;-66
2021/11/21 07:58:16;;;;;;;71.72;10.90;;;;;;;;;;5131517;27;20233;-66
2021/11/21 08:00:43;;;;;;;74.07;11.20;;;;;;;;;;5131850;27;20539;-66
2021/11/21 08:03:11;;;;;;;73.75;12.00;;;;;;;;;;5131323;27;20203;-64
2021/11/21 08:05:38;;;;;;;71.72;12.15;;;;;;;;;;5133771;27;20217;-65
2021/11/21 08:08:05;;;;;;;75.57;12.00;;;;;;;;;;5135677;27;20205;-66
2021/11/21 08:10:33;;;;;;;74.72;13.02;;;;;;;;;;5136221;27;20225;-65
2021/11/21 08:13:00;;;;;;;72.70;12.60;;;;;;;;;;5135758;27;20233;-65
2021/11/21 08:15:28;;;;;;;80.20;13.65;;;;;;;;;;5135342;27;20199;-66
2021/11/21 08:17:55;;;;;;;73.93;11.60;;;;;;;;;;5135818;27;20226;-66
2021/11/21 08:20:24;;;;;;;72.80;11.27;;;;;;;;;;5135659;27;20213;-64
2021/11/21 08:22:51;;;;;;;77.07;11.95;;;;;;;;;;5135363;27;20227;-66
2021/11/21 08:25:18;;;;;;;71.95;10.30;;;;;;;;;;5133325;27;20397;-66
2021/11/21 08:27:45;;;;;;;73.28;12.45;;;;;;;;;;5135267;27;20693;-65
2021/11/21 08:30:13;;;;;;;74.90;11.98;;;;;;;;;;5135640;27;20202;-64
2021/11/21 08:32:40;;;;;;;73.72;11.43;;;;;;;;;;5134968;27;20230;-66
2021/11/21 08:35:07;;;;;;;76.38;12.60;;;;;;;;;;5135514;27;20199;-65
2021/11/21 08:37:36;;;;;;;78.38;14.48;;;;;;;;;;5135263;27;20242;-66
2021/11/21 08:40:04;;;;;;;73.78;12.40;;;;;;;;;;5135186;27;20222;-65
2021/11/21 08:42:33;;;;;;;77.05;12.52;;;;;;;;;;5135649;27;20257;-66
2021/11/21 08:45:00;;;;;;;75.47;13.68;;;;;;;;;;5135654;27;20619;-65
2021/11/21 08:47:27;;;;;;;79.50;13.50;;;;;;;;;;5135152;27;20292;-66
2021/11/21 08:49:54;;;;;;;77.85;13.43;;;;;;;;;;5134574;27;20229;-66
2021/11/21 08:52:21;;;;;;;77.97;13.88;;;;;;;;;;5135309;27;20230;-66
2021/11/21 08:54:49;;;;;;;83.20;14.07;;;;;;;;;;5135730;27;20211;-66
2021/11/21 08:57:17;;;;;;;76.38;12.35;;;;;;;;;;5133104;27;20203;-65
2021/11/21 08:59:44;;;;;;;79.10;13.60;;;;;;;;;;5135935;27;20199;-65
2021/11/21 09:02:11;;;;;;;77.38;13.20;;;;;;;;;;5135564;27;20231;-66
2021/11/21 09:04:38;;;;;;;71.93;11.60;;;;;;;;;;5135076;27;20207;-65
2021/11/21 09:07:05;;;;;;;75.43;11.95;;;;;;;;;;5134802;27;20242;-65
2021/11/21 09:09:32;;;;;;;73.88;11.40;;;;;;;;;;5134064;27;20206;-65
2021/11/21 09:12:01;;;;;;;76.20;11.75;;;;;;;;;;5134490;27;20715;-66
2021/11/21 09:14:28;;;;;;;70.55;10.80;;;;;;;;;;5135344;27;20210;-65
2021/11/21 09:16:55;;;;;;;73.20;10.90;;;;;;;;;;5134320;27;20230;-66
2021/11/21 09:19:22;;;;;;;73.72;11.02;;;;;;;;;;5135130;27;20223;-65
2021/11/21 09:21:50;;;;;;;71.20;11.18;;;;;;;;;;5135360;27;20223;-65
2021/11/21 09:24:17;;;;;;;72.93;11.00;;;;;;;;;;5134925;27;20701;-66
2021/11/21 09:26:44;;;;;;;69.72;10.13;;;;;;;;;;5134586;27;20206;-65
2021/11/21 09:29:12;;;;;;;70.65;10.50;;;;;;;;;;5133852;27;20207;-66
2021/11/21 09:31:40;;;;;;;73.82;11.32;;;;;;;;;;5134364;27;20227;-65
2021/11/21 09:34:07;;;;;;;68.95;8.68;;;;;;;;;;5134773;27;20692;-65
2021/11/21 09:36:34;;;;;;;73.57;10.52;;;;;;;;;;5134705;27;20205;-65
2021/11/21 09:39:02;;;;;;;70.55;11.32;;;;;;;;;;5134774;27;20222;-65
2021/11/21 09:41:29;;;;;;;74.10;9.85;;;;;;;;;;5134647;27;20593;-64
2021/11/21 09:43:56;;;;;;;73.80;10.30;;;;;;;;;;5132958;27;20202;-65
2021/11/21 09:46:24;;;;;;;69.50;10.23;;;;;;;;;;5134046;27;20202;-64
2021/11/21 09:48:52;;;;;;;70.22;10.63;;;;;;;;;;5133666;27;20286;-65
2021/11/21 09:51:20;;;;;;;71.80;10.02;;;;;;;;;;5133342;27;20224;-65
2021/11/21 09:53:48;;;;;;;72.43;9.80;;;;;;;;;;5133641;27;20236;-65
2021/11/21 09:56:15;;;;;;;75.70;10.32;;;;;;;;;;5134136;27;20210;-66
2021/11/21 09:58:43;;;;;;;74.43;12.50;;;;;;;;;;5134335;27;20233;-66
2021/11/21 10:01:29;;;;;;;69.25;9.25;;;;;;;;;;5134841;27;20219;-65
2021/11/21 10:03:57;;;;;;;72.05;10.70;;;;;;;;;;5134204;27;20199;-65
2021/11/21 10:06:30;;;;;;;72.85;10.63;;;;;;;;;;5133623;27;20213;-65
2021/11/21 10:08:57;;;;;;;71.97;11.45;;;;;;;;;;5133444;27;20682;-64
2021/11/21 10:11:24;;;;;;;71.88;10.60;;;;;;;;;;5133277;27;20233;-66
2021/11/21 10:13:55;;;;;;;71.22;10.20;;;;;;;;;;5134085;27;20566;-65
2021/11/21 10:16:27;;;;;;;72.95;12.07;;;;;;;;;;5131624;27;20210;-65
2021/11/21 10:18:55;;;;;;;69.15;9.15;;;;;;;;;;5134017;27;20266;-65
2021/11/21 10:21:24;;;;;;;70.32;10.38;;;;;;;;;;5133848;27;20219;-65
2021/11/21 10:24:06;;;;;;;80.32;12.05;;;;;;;;;;5134267;27;20398;-65
2021/11/21 10:26:33;;;;;;;70.05;10.40;;;;;;;;;;5133445;27;20203;-65
2021/11/21 10:29:01;;;;;;;73.25;11.45;;;;;;;;;;5132755;27;20217;-65
2021/11/21 10:31:30;;;;;;;77.13;12.15;;;;;;;;;;5132682;27;20229;-66
2021/11/21 10:33:58;;;;;;;76.13;12.07;;;;;;;;;;5133213;27;20206;-66
2021/11/21 10:36:28;;;;;;;77.80;12.82;;;;;;;;;;5133438;27;20203;-66
2021/11/21 10:38:56;;;;;;;72.82;11.13;;;;;;;;;;5133802;27;20227;-65
2021/11/21 10:41:24;;;;;;;73.05;9.90;;;;;;;;;;5134172;27;20219;-66
2021/11/21 10:43:55;;;;;;;81.68;13.82;;;;;;;;;;5133864;27;20205;-66
2021/11/21 10:46:23;;;;;;;71.13;11.30;;;;;;;;;;5130320;27;20259;-65
2021/11/21 10:48:50;;;;;;;72.07;11.48;;;;;;;;;;5132947;27;20599;-65
2021/11/21 10:51:19;;;;;;;69.65;9.98;;;;;;;;;;5132312;27;20233;-65
2021/11/21 10:53:48;;;;;;;69.88;8.63;;;;;;;;;;5132496;27;20671;-66
2021/11/21 10:56:15;;;;;;;70.45;10.70;;;;;;;;;;5132379;27;20203;-65
2021/11/21 10:58:43;;;;;;;70.53;9.57;;;;;;;;;;5132864;27;20219;-66
2021/11/21 11:01:19;;;;;;;70.25;8.98;;;;;;;;;;5132984;27;20297;-66
2021/11/21 11:04:06;;;;;;;69.95;8.25;;;;;;;;;;5133281;27;20199;-66
2021/11/21 11:06:33;;;;;;;65.35;7.13;;;;;;;;;;5132626;27;20682;-65
2021/11/21 11:09:15;;;;;;;67.57;8.05;;;;;;;;;;5132798;27;20198;-66
2021/11/21 11:11:43;;;;;;;66.43;8.65;;;;;;;;;;5131986;27;20495;-66
2021/11/21 11:14:10;;;;;;;65.57;7.88;;;;;;;;;;5132667;27;20203;-66
2021/11/21 11:16:37;;;;;;;67.28;7.80;;;;;;;;;;5132415;27;20209;-65
2021/11/21 11:19:06;;;;;;;67.57;8.60;;;;;;;;;;5130555;27;20233;-67
2021/11/21 11:21:33;;;;;;;66.97;7.88;;;;;;;;;;5133110;27;20600;-66
2021/11/21 11:24:00;;;;;;;65.20;7.25;;;;;;;;;;5132541;27;20576;-66
2021/11/21 11:26:29;;;;;;;67.63;7.95;;;;;;;;;;5132554;27;20210;-66
2021/11/21 11:29:02;;;;;;;68.47;7.25;;;;;;;;;;5132264;27;20199;-66
2021/11/21 11:31:32;;;;;;;64.57;6.93;;;;;;;;;;5131734;27;20230;-66
2021/11/21 11:33:59;;;;;;;71.97;7.93;;;;;;;;;;5131983;27;20207;-65
2021/11/21 11:36:27;;;;;;;65.25;7.75;;;;;;;;;;5131605;27;20203;-66
2021/11/21 11:39:02;;;;;;;66.97;7.80;;;;;;;;;;5131731;27;20229;-66
2021/11/21 11:41:31;;;;;;;67.50;7.60;;;;;;;;;;5132410;27;20228;-66
2021/11/21 11:43:58;;;;;;;66.50;7.10;;;;;;;;;;5132177;27;20207;-65
2021/11/21 11:46:29;;;;;;;66.72;7.68;;;;;;;;;;5131870;27;20199;-66
2021/11/21 11:48:58;;;;;;;69.78;9.82;;;;;;;;;;5129956;27;20202;-66
2021/11/21 11:51:48;;;;;;;66.03;8.23;;;;;;;;;;5131724;27;20396;-65
2021/11/21 11:54:21;;;;;;;70.03;7.97;;;;;;;;;;5123630;27;20663;-65
2021/11/21 11:56:52;;;;;;;65.53;7.05;;;;;;;;;;5132147;27;20211;-65
2021/11/21 11:59:24;;;;;;;66.53;8.35;;;;;;;;;;5132147;27;20584;-65
2021/11/21 12:04:56;;;;;;;67.53;7.78;;;;;;;;;;5129219;28;20205;-65
2021/11/21 12:07:34;;;;;;;68.78;8.95;;;;;;;;;;5131893;27;20209;-65
2021/11/21 12:10:09;;;;;;;65.82;7.75;;;;;;;;;;5130012;27;20295;-65
2021/11/21 12:12:53;;;;;;;65.40;6.65;;;;;;;;;;5131809;27;20231;-65
2021/11/21 12:15:29;;;;;;;68.32;8.23;;;;;;;;;;5121023;27;20213;-65
2021/11/21 12:17:56;;;;;;;66.35;7.95;;;;;;;;;;5132094;27;20210;-65
2021/11/21 12:20:38;;;;;;;65.50;7.47;;;;;;;;;;5131894;27;20223;-64
2021/11/21 12:23:05;;;;;;;65.95;7.03;;;;;;;;;;5132217;27;20206;-65
2021/11/21 12:25:32;;;;;;;66.75;7.38;;;;;;;;;;5131925;27;20210;-66
2021/11/21 12:28:00;;;;;;;62.97;6.15;;;;;;;;;;5131966;27;20245;-66
2021/11/21 12:30:29;;;;;;;62.55;5.80;;;;;;;;;;5131890;27;20195;-66
2021/11/21 12:32:58;;;;;;;64.80;6.50;;;;;;;;;;5131190;27;20223;-65
2021/11/21 12:35:27;;;;;;;64.40;7.40;;;;;;;;;;5131322;27;20246;-65
2021/11/21 12:37:55;;;;;;;66.70;8.00;;;;;;;;;;5132081;27;20243;-66
2021/11/21 12:40:24;;;;;;;64.38;7.10;;;;;;;;;;5131793;27;20229;-65
2021/11/21 12:42:55;;;;;;;64.80;6.32;;;;;;;;;;5130497;27;20230;-65
2021/11/21 12:45:22;;;;;;;64.80;7.50;;;;;;;;;;5131775;27;20210;-65
2021/11/21 12:47:55;;;;;;;66.53;8.13;;;;;;;;;;5131492;27;20218;-66
2021/11/21 12:50:23;;;;;;;65.78;7.45;;;;;;;;;;5131669;27;20202;-65
2021/11/21 12:52:55;;;;;;;64.30;6.03;;;;;;;;;;5134792;27;20218;-65
2021/11/21 12:55:23;;;;;;;62.15;5.47;;;;;;;;;;5135017;27;20586;-65
2021/11/21 12:57:51;;;;;;;64.97;7.10;;;;;;;;;;5135566;27;20207;-66
2021/11/21 13:00:22;;;;;;;62.42;6.03;;;;;;;;;;5134926;27;21022;-66
2021/11/21 13:02:57;;;;;;;63.13;6.03;;;;;;;;;;5135146;27;20570;-65
2021/11/21 13:05:25;;;;;;;64.95;7.13;;;;;;;;;;5134888;27;20224;-66
2021/11/21 13:07:52;;;;;;;65.38;6.05;;;;;;;;;;5135385;27;20203;-66
2021/11/21 13:10:20;;;;;;;62.13;5.65;;;;;;;;;;5134775;27;20201;-66
2021/11/21 13:12:48;;;;;;;62.38;6.10;;;;;;;;;;5134701;27;20315;-65
2021/11/21 13:15:16;;;;;;;61.85;6.18;;;;;;;;;;5134631;27;20199;-66
2021/11/21 13:17:45;;;;;;;61.90;5.00;;;;;;;;;;5135128;27;20203;-66
2021/11/21 13:20:15;;;;;;;62.33;6.20;;;;;;;;;;5135305;27;20568;-66
2021/11/21 13:22:53;;;;;;;62.63;5.80;;;;;;;;;;5135265;27;20230;-65
2021/11/21 13:25:30;;;;;;;64.90;6.13;;;;;;;;;;5134982;27;20676;-66
2021/11/21 13:28:12;;;;;;;62.65;7.10;;;;;;;;;;5135126;27;20210;-64
2021/11/21 13:30:39;;;;;;;65.53;6.95;;;;;;;;;;5134081;27;20207;-65
2021/11/21 13:33:14;;;;;;;63.22;7.32;;;;;;;;;;5134172;27;20207;-65
2021/11/21 13:35:43;;;;;;;66.18;8.27;;;;;;;;;;5134053;27;20259;-65
2021/11/21 13:38:10;;;;;;;62.67;6.55;;;;;;;;;;5134933;27;20686;-65
2021/11/21 13:40:38;;;;;;;65.88;6.55;;;;;;;;;;5134715;27;20233;-65
2021/11/21 13:43:06;;;;;;;65.60;6.40;;;;;;;;;;5134836;27;20209;-64
2021/11/21 13:45:33;;;;;;;63.63;6.60;;;;;;;;;;5134584;27;20213;-66
2021/11/21 13:48:00;;;;;;;63.50;6.15;;;;;;;;;;5134317;27;20696;-65
2021/11/21 13:50:29;;;;;;;61.70;5.65;;;;;;;;;;5134370;27;20199;-64
2021/11/21 13:52:58;;;;;;;63.47;6.50;;;;;;;;;;5134242;27;20267;-65
2021/11/21 13:55:27;;;;;;;62.47;6.43;;;;;;;;;;5133277;27;20207;-64
2021/11/21 13:57:55;;;;;;;63.95;6.43;;;;;;;;;;5134250;27;20206;-66
2021/11/21 14:00:25;;;;;;;62.58;6.47;;;;;;;;;;5134502;27;20216;-64
2021/11/21 14:02:57;;;;;;;62.67;6.13;;;;;;;;;;5133462;27;20219;-66
2021/11/21 14:05:25;;;;;;;65.15;6.55;;;;;;;;;;5134223;27;20216;-65
2021/11/21 14:07:55;;;;;;;63.42;6.35;;;;;;;;;;5134268;27;20207;-65
2021/11/21 14:10:27;;;;;;;66.75;6.78;;;;;;;;;;5130799;27;20521;-65
2021/11/21 14:13:06;;;;;;;68.40;8.85;;;;;;;;;;5132765;27;20225;-66
2021/11/21 14:15:33;;;;;;;63.17;6.00;;;;;;;;;;5132766;27;20575;-66
2021/11/21 14:18:01;;;;;;;64.80;7.50;;;;;;;;;;5134013;27;20207;-65
2021/11/21 14:20:29;;;;;;;62.83;7.00;;;;;;;;;;5133639;27;20237;-66
2021/11/21 14:23:00;;;;;;;63.03;6.38;;;;;;;;;;5134105;27;20228;-66
2021/11/21 14:25:30;;;;;;;64.05;6.60;;;;;;;;;;5133250;27;20213;-66
2021/11/21 14:28:02;;;;;;;64.55;6.63;;;;;;;;;;5133590;27;20292;-66
2021/11/21 14:30:29;;;;;;;64.55;6.20;;;;;;;;;;5133493;27;20198;-66